Terminal Aerodrome Forecast
Issued by NWS

Home | Current Version | Previous Version | Text Only | Print | Product List | Glossary On
Versions: 1 2 3 4 5 6 7 8 9 10 11 12 13 14 15 16 17 18 19 20 21 22
000
FTUS41 KGYX 232104 AAA
TAFLEB
TAF AMD
KLEB 232104Z 2321/2418 17005KT 3SM -RA BR BKN025 OVC035
      TEMPO 2321/2324 1 1/2SM -RASN BKN015 OVC030
     FM240000 18008KT 3SM -RA BKN015 OVC025
     FM240300 VRB04KT 4SM BR BKN007
     FM241100 30006KT P6SM FEW250=

USA.gov is the U.S. government's official web portal to all federal, state and local government web resources and services.